sensor_id;sensor_type;location;lat;lon;timestamp;P1;durP1;ratioP1;P2;durP2;ratioP2
70388;SDS011;58659;49.050;8.530;2023-07-31T04:29:21;1.60;;;1.30;;
70388;SDS011;58659;49.050;8.530;2023-07-31T04:31:47;1.67;;;1.10;;
70388;SDS011;58659;49.050;8.530;2023-07-31T04:34:12;3.53;;;1.73;;
70388;SDS011;58659;49.050;8.530;2023-07-31T04:36:38;1.73;;;1.20;;
70388;SDS011;58659;49.050;8.530;2023-07-31T04:39:03;7.00;;;1.30;;
70388;SDS011;58659;49.050;8.530;2023-07-31T04:41:29;5.33;;;1.43;;
70388;SDS011;58659;49.050;8.530;2023-07-31T04:43:54;1.43;;;1.00;;
70388;SDS011;58659;49.050;8.530;2023-07-31T04:46:19;1.17;;;1.00;;
70388;SDS011;58659;49.050;8.530;2023-07-31T04:48:45;4.07;;;1.27;;
70388;SDS011;58659;49.050;8.530;2023-07-31T04:51:10;3.83;;;1.43;;
70388;SDS011;58659;49.050;8.530;2023-07-31T05:46:52;3.40;;;1.07;;
70388;SDS011;58659;49.050;8.530;2023-07-31T05:49:18;1.40;;;1.20;;
70388;SDS011;58659;49.050;8.530;2023-07-31T05:51:43;3.57;;;1.10;;
70388;SDS011;58659;49.050;8.530;2023-07-31T05:54:08;4.70;;;1.20;;
70388;SDS011;58659;49.050;8.530;2023-07-31T05:56:34;1.97;;;1.17;;
70388;SDS011;58659;49.050;8.530;2023-07-31T05:58:59;5.27;;;1.13;;
70388;SDS011;58659;49.050;8.530;2023-07-31T06:01:24;6.00;;;1.30;;
70388;SDS011;58659;49.050;8.530;2023-07-31T06:03:49;5.07;;;1.30;;
70388;SDS011;58659;49.050;8.530;2023-07-31T06:06:15;1.27;;;1.00;;
70388;SDS011;58659;49.050;8.530;2023-07-31T06:08:40;3.83;;;1.63;;
70388;SDS011;58659;49.050;8.530;2023-07-31T06:11:06;3.63;;;1.43;;
70388;SDS011;58659;49.050;8.530;2023-07-31T06:13:33;2.30;;;1.30;;
70388;SDS011;58659;49.050;8.530;2023-07-31T06:15:59;1.93;;;1.40;;
70388;SDS011;58659;49.050;8.530;2023-07-31T06:18:24;1.60;;;1.20;;
70388;SDS011;58659;49.050;8.530;2023-07-31T06:20:50;2.87;;;1.27;;
70388;SDS011;58659;49.050;8.530;2023-07-31T06:23:18;2.60;;;1.70;;
70388;SDS011;58659;49.050;8.530;2023-07-31T06:25:44;5.50;;;1.47;;
70388;SDS011;58659;49.050;8.530;2023-07-31T06:28:09;3.63;;;1.30;;
70388;SDS011;58659;49.050;8.530;2023-07-31T06:30:35;1.43;;;1.33;;
70388;SDS011;58659;49.050;8.530;2023-07-31T06:33:00;2.63;;;1.40;;
70388;SDS011;58659;49.050;8.530;2023-07-31T06:35:25;3.50;;;1.20;;
70388;SDS011;58659;49.050;8.530;2023-07-31T06:37:51;1.97;;;1.20;;
70388;SDS011;58659;49.050;8.530;2023-07-31T06:40:16;4.53;;;1.10;;
70388;SDS011;58659;49.050;8.530;2023-07-31T06:42:41;2.30;;;1.23;;
70388;SDS011;58659;49.050;8.530;2023-07-31T06:45:07;1.77;;;1.13;;
70388;SDS011;58659;49.050;8.530;2023-07-31T06:47:33;3.03;;;1.33;;
70388;SDS011;58659;49.050;8.530;2023-07-31T06:49:58;4.17;;;1.30;;
70388;SDS011;58659;49.050;8.530;2023-07-31T06:52:23;3.70;;;1.40;;
70388;SDS011;58659;49.050;8.530;2023-07-31T06:57:44;2.17;;;1.30;;
70388;SDS011;58659;49.050;8.530;2023-07-31T07:00:10;2.60;;;1.20;;
70388;SDS011;58659;49.050;8.530;2023-07-31T07:02:36;3.57;;;1.13;;
70388;SDS011;58659;49.050;8.530;2023-07-31T07:05:01;2.93;;;1.20;;
70388;SDS011;58659;49.050;8.530;2023-07-31T07:07:27;3.77;;;1.53;;
70388;SDS011;58659;49.050;8.530;2023-07-31T07:09:52;2.83;;;0.97;;
70388;SDS011;58659;49.050;8.530;2023-07-31T07:12:18;2.97;;;1.30;;
70388;SDS011;58659;49.050;8.530;2023-07-31T07:14:43;1.93;;;1.37;;
70388;SDS011;58659;49.050;8.530;2023-07-31T07:17:10;4.13;;;1.30;;
70388;SDS011;58659;49.050;8.530;2023-07-31T07:19:36;3.57;;;1.10;;
70388;SDS011;58659;49.050;8.530;2023-07-31T07:22:01;1.23;;;1.00;;
70388;SDS011;58659;49.050;8.530;2023-07-31T07:24:27;1.77;;;1.10;;
70388;SDS011;58659;49.050;8.530;2023-07-31T07:26:52;2.23;;;1.40;;
70388;SDS011;58659;49.050;8.530;2023-07-31T07:41:24;2.87;;;1.30;;
70388;SDS011;58659;49.050;8.530;2023-07-31T07:43:49;1.73;;;1.30;;
70388;SDS011;58659;49.050;8.530;2023-07-31T07:46:14;2.70;;;1.20;;
70388;SDS011;58659;49.050;8.530;2023-07-31T07:48:40;4.00;;;1.60;;
70388;SDS011;58659;49.050;8.530;2023-07-31T07:51:05;6.40;;;1.60;;
70388;SDS011;58659;49.050;8.530;2023-07-31T07:53:30;7.00;;;1.60;;
70388;SDS011;58659;49.050;8.530;2023-07-31T07:55:55;5.50;;;1.40;;
70388;SDS011;58659;49.050;8.530;2023-07-31T07:58:21;3.20;;;1.70;;
70388;SDS011;58659;49.050;8.530;2023-07-31T08:00:53;2.27;;;1.20;;
70388;SDS011;58659;49.050;8.530;2023-07-31T08:03:18;4.67;;;1.30;;
70388;SDS011;58659;49.050;8.530;2023-07-31T08:05:44;5.10;;;1.67;;
70388;SDS011;58659;49.050;8.530;2023-07-31T08:08:13;5.00;;;1.57;;
70388;SDS011;58659;49.050;8.530;2023-07-31T08:10:41;1.73;;;1.23;;
70388;SDS011;58659;49.050;8.530;2023-07-31T08:13:06;2.37;;;1.20;;
70388;SDS011;58659;49.050;8.530;2023-07-31T08:15:32;4.10;;;1.30;;
70388;SDS011;58659;49.050;8.530;2023-07-31T08:17:57;2.30;;;1.33;;
70388;SDS011;58659;49.050;8.530;2023-07-31T08:20:22;2.57;;;1.40;;
70388;SDS011;58659;49.050;8.530;2023-07-31T08:22:48;3.70;;;1.50;;
70388;SDS011;58659;49.050;8.530;2023-07-31T08:25:13;2.93;;;1.30;;
70388;SDS011;58659;49.050;8.530;2023-07-31T08:27:42;5.87;;;1.40;;
70388;SDS011;58659;49.050;8.530;2023-07-31T08:30:08;3.13;;;1.60;;
70388;SDS011;58659;49.050;8.530;2023-07-31T08:32:34;4.07;;;1.30;;
70388;SDS011;58659;49.050;8.530;2023-07-31T08:34:59;2.73;;;1.30;;
70388;SDS011;58659;49.050;8.530;2023-07-31T08:37:25;4.87;;;1.43;;
70388;SDS011;58659;49.050;8.530;2023-07-31T08:39:50;3.27;;;1.27;;
70388;SDS011;58659;49.050;8.530;2023-07-31T08:42:16;3.23;;;1.30;;
70388;SDS011;58659;49.050;8.530;2023-07-31T08:44:41;3.87;;;1.60;;
70388;SDS011;58659;49.050;8.530;2023-07-31T08:47:09;1.97;;;1.17;;
70388;SDS011;58659;49.050;8.530;2023-07-31T08:49:34;4.47;;;1.40;;
70388;SDS011;58659;49.050;8.530;2023-07-31T08:52:02;2.20;;;1.33;;
70388;SDS011;58659;49.050;8.530;2023-07-31T08:54:27;2.43;;;1.13;;
70388;SDS011;58659;49.050;8.530;2023-07-31T08:56:56;5.03;;;1.60;;
70388;SDS011;58659;49.050;8.530;2023-07-31T08:59:22;4.17;;;1.63;;
70388;SDS011;58659;49.050;8.530;2023-07-31T09:01:49;4.95;;;1.67;;
70388;SDS011;58659;49.050;8.530;2023-07-31T09:04:17;11.38;;;1.67;;
70388;SDS011;58659;49.050;8.530;2023-07-31T09:06:44;7.07;;;1.55;;
70388;SDS011;58659;49.050;8.530;2023-07-31T09:09:12;2.70;;;1.20;;
70388;SDS011;58659;49.050;8.530;2023-07-31T09:51:10;4.10;;;1.60;;
70388;SDS011;58659;49.050;8.530;2023-07-31T12:23:52;4.87;;;1.30;;
70388;SDS011;58659;49.050;8.530;2023-07-31T12:36:11;3.30;;;1.40;;
70388;SDS011;58659;49.050;8.530;2023-07-31T16:53:22;5.07;;;1.63;;
70388;SDS011;58659;49.050;8.530;2023-07-31T20:46:17;4.63;;;2.40;;
70388;SDS011;58659;49.050;8.530;2023-07-31T20:48:42;2.93;;;1.90;;
70388;SDS011;58659;49.050;8.530;2023-07-31T20:51:07;5.33;;;2.30;;
70388;SDS011;58659;49.050;8.530;2023-07-31T20:53:33;3.30;;;2.20;;
70388;SDS011;58659;49.050;8.530;2023-07-31T20:55:58;4.57;;;2.00;;
70388;SDS011;58659;49.050;8.530;2023-07-31T20:58:24;3.80;;;1.90;;
70388;SDS011;58659;49.050;8.530;2023-07-31T21:00:49;7.90;;;2.57;;
70388;SDS011;58659;49.050;8.530;2023-07-31T21:03:14;4.63;;;2.20;;
70388;SDS011;58659;49.050;8.530;2023-07-31T21:05:47;4.57;;;1.90;;
70388;SDS011;58659;49.050;8.530;2023-07-31T21:08:16;4.07;;;2.10;;
70388;SDS011;58659;49.050;8.530;2023-07-31T21:10:42;4.03;;;1.80;;
70388;SDS011;58659;49.050;8.530;2023-07-31T21:13:07;5.03;;;2.07;;
70388;SDS011;58659;49.050;8.530;2023-07-31T21:15:32;5.47;;;2.10;;
70388;SDS011;58659;49.050;8.530;2023-07-31T21:17:58;6.23;;;2.03;;
70388;SDS011;58659;49.050;8.530;2023-07-31T21:20:23;5.53;;;2.00;;
70388;SDS011;58659;49.050;8.530;2023-07-31T21:22:49;3.33;;;1.83;;
70388;SDS011;58659;49.050;8.530;2023-07-31T21:25:15;5.67;;;2.30;;
70388;SDS011;58659;49.050;8.530;2023-07-31T21:27:40;3.50;;;1.67;;
70388;SDS011;58659;49.050;8.530;2023-07-31T21:30:06;3.57;;;2.27;;
70388;SDS011;58659;49.050;8.530;2023-07-31T21:32:32;4.27;;;2.30;;
70388;SDS011;58659;49.050;8.530;2023-07-31T21:34:57;4.67;;;2.17;;
70388;SDS011;58659;49.050;8.530;2023-07-31T21:37:23;5.00;;;1.90;;
70388;SDS011;58659;49.050;8.530;2023-07-31T21:39:48;7.37;;;2.33;;
70388;SDS011;58659;49.050;8.530;2023-07-31T21:42:13;3.53;;;1.93;;
70388;SDS011;58659;49.050;8.530;2023-07-31T21:44:38;3.87;;;1.97;;
70388;SDS011;58659;49.050;8.530;2023-07-31T21:47:05;5.23;;;2.37;;
70388;SDS011;58659;49.050;8.530;2023-07-31T21:49:31;6.60;;;1.93;;
70388;SDS011;58659;49.050;8.530;2023-07-31T21:51:56;2.97;;;2.03;;
70388;SDS011;58659;49.050;8.530;2023-07-31T21:54:21;3.63;;;2.10;;
70388;SDS011;58659;49.050;8.530;2023-07-31T21:56:47;5.43;;;2.10;;
70388;SDS011;58659;49.050;8.530;2023-07-31T21:59:12;3.93;;;2.00;;
70388;SDS011;58659;49.050;8.530;2023-07-31T22:01:37;4.03;;;1.97;;
70388;SDS011;58659;49.050;8.530;2023-07-31T22:04:03;2.73;;;2.03;;
70388;SDS011;58659;49.050;8.530;2023-07-31T22:06:28;3.20;;;1.90;;
70388;SDS011;58659;49.050;8.530;2023-07-31T22:08:53;7.67;;;2.30;;
70388;SDS011;58659;49.050;8.530;2023-07-31T22:11:19;3.30;;;2.10;;
70388;SDS011;58659;49.050;8.530;2023-07-31T22:13:46;5.43;;;1.93;;
70388;SDS011;58659;49.050;8.530;2023-07-31T22:16:11;4.90;;;2.10;;
70388;SDS011;58659;49.050;8.530;2023-07-31T22:18:37;5.63;;;2.13;;
70388;SDS011;58659;49.050;8.530;2023-07-31T22:21:02;5.63;;;2.23;;
70388;SDS011;58659;49.050;8.530;2023-07-31T22:23:27;3.70;;;1.80;;
70388;SDS011;58659;49.050;8.530;2023-07-31T22:25:53;4.53;;;2.27;;
70388;SDS011;58659;49.050;8.530;2023-07-31T22:28:18;5.97;;;1.90;;
70388;SDS011;58659;49.050;8.530;2023-07-31T22:30:43;3.57;;;2.13;;
70388;SDS011;58659;49.050;8.530;2023-07-31T22:33:08;3.50;;;2.03;;
70388;SDS011;58659;49.050;8.530;2023-07-31T22:35:34;4.37;;;1.83;;
70388;SDS011;58659;49.050;8.530;2023-07-31T22:37:59;5.27;;;2.40;;
70388;SDS011;58659;49.050;8.530;2023-07-31T22:40:24;8.70;;;2.10;;
70388;SDS011;58659;49.050;8.530;2023-07-31T22:42:50;4.50;;;2.17;;
70388;SDS011;58659;49.050;8.530;2023-07-31T22:45:15;7.03;;;2.20;;
70388;SDS011;58659;49.050;8.530;2023-07-31T22:47:40;4.63;;;2.33;;
70388;SDS011;58659;49.050;8.530;2023-07-31T22:50:06;2.77;;;1.93;;
70388;SDS011;58659;49.050;8.530;2023-07-31T22:52:33;6.20;;;2.13;;
70388;SDS011;58659;49.050;8.530;2023-07-31T22:54:58;6.23;;;2.50;;
70388;SDS011;58659;49.050;8.530;2023-07-31T22:57:24;9.87;;;2.60;;
70388;SDS011;58659;49.050;8.530;2023-07-31T22:59:52;6.63;;;2.40;;
70388;SDS011;58659;49.050;8.530;2023-07-31T23:02:18;3.47;;;1.97;;
70388;SDS011;58659;49.050;8.530;2023-07-31T23:04:43;6.40;;;2.03;;
70388;SDS011;58659;49.050;8.530;2023-07-31T23:07:08;4.80;;;2.17;;
70388;SDS011;58659;49.050;8.530;2023-07-31T23:09:34;3.80;;;2.20;;
70388;SDS011;58659;49.050;8.530;2023-07-31T23:11:59;6.60;;;2.40;;
70388;SDS011;58659;49.050;8.530;2023-07-31T23:14:25;5.60;;;1.97;;
70388;SDS011;58659;49.050;8.530;2023-07-31T23:16:50;4.70;;;2.27;;
70388;SDS011;58659;49.050;8.530;2023-07-31T23:19:15;3.50;;;1.97;;
70388;SDS011;58659;49.050;8.530;2023-07-31T23:21:40;5.40;;;1.67;;
70388;SDS011;58659;49.050;8.530;2023-07-31T23:24:06;5.50;;;2.30;;
70388;SDS011;58659;49.050;8.530;2023-07-31T23:26:31;3.83;;;2.10;;
70388;SDS011;58659;49.050;8.530;2023-07-31T23:28:57;3.47;;;2.30;;
70388;SDS011;58659;49.050;8.530;2023-07-31T23:31:22;6.20;;;2.43;;
70388;SDS011;58659;49.050;8.530;2023-07-31T23:33:48;8.87;;;2.33;;
70388;SDS011;58659;49.050;8.530;2023-07-31T23:36:13;8.33;;;2.73;;
70388;SDS011;58659;49.050;8.530;2023-07-31T23:38:39;4.50;;;2.13;;
70388;SDS011;58659;49.050;8.530;2023-07-31T23:41:05;5.73;;;2.20;;
70388;SDS011;58659;49.050;8.530;2023-07-31T23:43:30;5.23;;;2.00;;
70388;SDS011;58659;49.050;8.530;2023-07-31T23:45:55;3.90;;;2.10;;
70388;SDS011;58659;49.050;8.530;2023-07-31T23:48:21;5.83;;;2.40;;
70388;SDS011;58659;49.050;8.530;2023-07-31T23:50:46;4.67;;;2.27;;
70388;SDS011;58659;49.050;8.530;2023-07-31T23:53:12;3.33;;;2.17;;
70388;SDS011;58659;49.050;8.530;2023-07-31T23:55:37;5.47;;;1.90;;
70388;SDS011;58659;49.050;8.530;2023-07-31T23:58:03;4.67;;;2.27;;
